sensor_id;sensor_type;location;lat;lon;timestamp;P1;durP1;ratioP1;P2;durP2;ratioP2
14121;SDS011;7139;48.114;11.442;2024-01-15T00:00:11;7.10;;;4.50;;
14121;SDS011;7139;48.114;11.442;2024-01-15T00:02:38;7.67;;;4.90;;
14121;SDS011;7139;48.114;11.442;2024-01-15T00:05:06;7.10;;;5.10;;
14121;SDS011;7139;48.114;11.442;2024-01-15T00:07:33;6.77;;;5.20;;
14121;SDS011;7139;48.114;11.442;2024-01-15T00:10:01;7.47;;;5.33;;
14121;SDS011;7139;48.114;11.442;2024-01-15T00:12:28;8.03;;;5.47;;
14121;SDS011;7139;48.114;11.442;2024-01-15T00:14:55;8.00;;;5.70;;
14121;SDS011;7139;48.114;11.442;2024-01-15T00:17:22;8.93;;;5.50;;
14121;SDS011;7139;48.114;11.442;2024-01-15T00:19:49;7.43;;;5.43;;
14121;SDS011;7139;48.114;11.442;2024-01-15T00:22:16;9.17;;;6.00;;
14121;SDS011;7139;48.114;11.442;2024-01-15T00:24:44;8.90;;;5.33;;
14121;SDS011;7139;48.114;11.442;2024-01-15T00:27:12;8.90;;;5.83;;
14121;SDS011;7139;48.114;11.442;2024-01-15T00:29:39;8.13;;;5.30;;
14121;SDS011;7139;48.114;11.442;2024-01-15T00:32:06;7.93;;;5.83;;
14121;SDS011;7139;48.114;11.442;2024-01-15T00:34:33;7.80;;;5.77;;
14121;SDS011;7139;48.114;11.442;2024-01-15T00:37:00;8.27;;;6.20;;
14121;SDS011;7139;48.114;11.442;2024-01-15T00:39:27;9.40;;;6.27;;
14121;SDS011;7139;48.114;11.442;2024-01-15T00:41:55;7.83;;;5.83;;
14121;SDS011;7139;48.114;11.442;2024-01-15T00:44:23;10.63;;;7.00;;
14121;SDS011;7139;48.114;11.442;2024-01-15T00:46:50;9.50;;;6.83;;
14121;SDS011;7139;48.114;11.442;2024-01-15T00:49:17;9.47;;;6.47;;
14121;SDS011;7139;48.114;11.442;2024-01-15T00:51:44;9.23;;;6.27;;
14121;SDS011;7139;48.114;11.442;2024-01-15T00:54:11;8.77;;;6.50;;
14121;SDS011;7139;48.114;11.442;2024-01-15T00:56:38;9.83;;;6.60;;
14121;SDS011;7139;48.114;11.442;2024-01-15T00:59:05;10.63;;;7.20;;
14121;SDS011;7139;48.114;11.442;2024-01-15T01:01:36;10.17;;;7.33;;
14121;SDS011;7139;48.114;11.442;2024-01-15T01:04:07;8.83;;;6.23;;
14121;SDS011;7139;48.114;11.442;2024-01-15T01:06:34;10.57;;;7.10;;
14121;SDS011;7139;48.114;11.442;2024-01-15T01:09:02;9.77;;;6.60;;
14121;SDS011;7139;48.114;11.442;2024-01-15T01:11:30;9.60;;;7.30;;
14121;SDS011;7139;48.114;11.442;2024-01-15T01:13:57;11.17;;;7.03;;
14121;SDS011;7139;48.114;11.442;2024-01-15T01:16:24;11.67;;;7.37;;
14121;SDS011;7139;48.114;11.442;2024-01-15T01:18:52;11.20;;;7.90;;
14121;SDS011;7139;48.114;11.442;2024-01-15T01:21:19;11.23;;;8.13;;
14121;SDS011;7139;48.114;11.442;2024-01-15T01:23:46;14.30;;;9.00;;
14121;SDS011;7139;48.114;11.442;2024-01-15T01:26:15;12.47;;;8.43;;
14121;SDS011;7139;48.114;11.442;2024-01-15T01:28:42;13.07;;;8.53;;
14121;SDS011;7139;48.114;11.442;2024-01-15T01:31:09;14.47;;;9.13;;
14121;SDS011;7139;48.114;11.442;2024-01-15T01:33:37;13.47;;;8.57;;
14121;SDS011;7139;48.114;11.442;2024-01-15T01:36:08;12.13;;;8.80;;
14121;SDS011;7139;48.114;11.442;2024-01-15T01:38:35;13.60;;;9.17;;
14121;SDS011;7139;48.114;11.442;2024-01-15T01:41:02;12.83;;;8.90;;
14121;SDS011;7139;48.114;11.442;2024-01-15T01:43:29;11.93;;;8.50;;
14121;SDS011;7139;48.114;11.442;2024-01-15T01:45:57;15.43;;;9.40;;
14121;SDS011;7139;48.114;11.442;2024-01-15T01:48:24;13.07;;;8.90;;
14121;SDS011;7139;48.114;11.442;2024-01-15T01:50:52;12.83;;;8.87;;
14121;SDS011;7139;48.114;11.442;2024-01-15T01:53:21;14.60;;;8.20;;
14121;SDS011;7139;48.114;11.442;2024-01-15T01:55:48;10.50;;;7.30;;
14121;SDS011;7139;48.114;11.442;2024-01-15T01:58:16;13.27;;;8.50;;
14121;SDS011;7139;48.114;11.442;2024-01-15T02:00:43;11.33;;;8.57;;
14121;SDS011;7139;48.114;11.442;2024-01-15T02:03:10;11.53;;;7.93;;
14121;SDS011;7139;48.114;11.442;2024-01-15T02:05:37;10.03;;;7.10;;
14121;SDS011;7139;48.114;11.442;2024-01-15T02:08:05;12.10;;;8.03;;
14121;SDS011;7139;48.114;11.442;2024-01-15T02:10:33;11.23;;;7.60;;
14121;SDS011;7139;48.114;11.442;2024-01-15T02:13:01;11.00;;;7.77;;
14121;SDS011;7139;48.114;11.442;2024-01-15T02:15:29;10.70;;;7.57;;
14121;SDS011;7139;48.114;11.442;2024-01-15T02:17:56;12.97;;;8.17;;
14121;SDS011;7139;48.114;11.442;2024-01-15T02:20:23;11.90;;;7.97;;
14121;SDS011;7139;48.114;11.442;2024-01-15T02:22:51;11.30;;;7.47;;
14121;SDS011;7139;48.114;11.442;2024-01-15T02:25:19;14.10;;;8.70;;
14121;SDS011;7139;48.114;11.442;2024-01-15T02:27:47;12.17;;;8.43;;
14121;SDS011;7139;48.114;11.442;2024-01-15T02:30:14;10.93;;;7.73;;
14121;SDS011;7139;48.114;11.442;2024-01-15T02:32:42;10.97;;;7.90;;
14121;SDS011;7139;48.114;11.442;2024-01-15T02:35:09;12.03;;;8.27;;
14121;SDS011;7139;48.114;11.442;2024-01-15T02:37:36;12.93;;;8.57;;
14121;SDS011;7139;48.114;11.442;2024-01-15T02:40:03;12.90;;;8.57;;
14121;SDS011;7139;48.114;11.442;2024-01-15T02:42:32;12.00;;;8.10;;
14121;SDS011;7139;48.114;11.442;2024-01-15T02:44:59;13.63;;;8.03;;
14121;SDS011;7139;48.114;11.442;2024-01-15T02:47:26;11.83;;;7.73;;
14121;SDS011;7139;48.114;11.442;2024-01-15T02:49:53;12.40;;;8.00;;
14121;SDS011;7139;48.114;11.442;2024-01-15T02:52:20;11.87;;;7.37;;
14121;SDS011;7139;48.114;11.442;2024-01-15T02:54:47;13.10;;;8.33;;
14121;SDS011;7139;48.114;11.442;2024-01-15T02:57:14;10.80;;;8.20;;
14121;SDS011;7139;48.114;11.442;2024-01-15T02:59:43;13.27;;;8.20;;
14121;SDS011;7139;48.114;11.442;2024-01-15T03:02:10;12.87;;;7.70;;
14121;SDS011;7139;48.114;11.442;2024-01-15T03:04:37;12.70;;;7.70;;
14121;SDS011;7139;48.114;11.442;2024-01-15T03:07:04;14.57;;;8.10;;
14121;SDS011;7139;48.114;11.442;2024-01-15T03:09:31;11.63;;;7.83;;
14121;SDS011;7139;48.114;11.442;2024-01-15T03:11:58;10.50;;;7.43;;
14121;SDS011;7139;48.114;11.442;2024-01-15T03:14:25;10.20;;;7.17;;
14121;SDS011;7139;48.114;11.442;2024-01-15T03:16:53;12.60;;;6.60;;
14121;SDS011;7139;48.114;11.442;2024-01-15T03:19:20;12.57;;;7.50;;
14121;SDS011;7139;48.114;11.442;2024-01-15T03:21:48;9.93;;;7.27;;
14121;SDS011;7139;48.114;11.442;2024-01-15T03:24:15;10.63;;;6.80;;
14121;SDS011;7139;48.114;11.442;2024-01-15T03:26:42;10.47;;;7.43;;
14121;SDS011;7139;48.114;11.442;2024-01-15T03:29:09;11.10;;;7.47;;
14121;SDS011;7139;48.114;11.442;2024-01-15T03:31:36;10.23;;;6.93;;
14121;SDS011;7139;48.114;11.442;2024-01-15T03:34:04;12.50;;;7.13;;
14121;SDS011;7139;48.114;11.442;2024-01-15T03:36:31;8.93;;;6.43;;
14121;SDS011;7139;48.114;11.442;2024-01-15T03:38:58;9.53;;;6.80;;
14121;SDS011;7139;48.114;11.442;2024-01-15T03:41:25;9.73;;;7.00;;
14121;SDS011;7139;48.114;11.442;2024-01-15T03:43:53;10.13;;;5.93;;
14121;SDS011;7139;48.114;11.442;2024-01-15T03:46:20;11.63;;;7.60;;
14121;SDS011;7139;48.114;11.442;2024-01-15T03:48:47;9.40;;;6.27;;
14121;SDS011;7139;48.114;11.442;2024-01-15T03:51:16;10.97;;;6.70;;
14121;SDS011;7139;48.114;11.442;2024-01-15T03:53:43;11.60;;;7.43;;
14121;SDS011;7139;48.114;11.442;2024-01-15T03:56:11;10.63;;;7.10;;
14121;SDS011;7139;48.114;11.442;2024-01-15T03:58:38;12.47;;;7.43;;
14121;SDS011;7139;48.114;11.442;2024-01-15T04:01:07;10.87;;;6.87;;
14121;SDS011;7139;48.114;11.442;2024-01-15T04:03:34;9.80;;;6.93;;
14121;SDS011;7139;48.114;11.442;2024-01-15T04:06:01;10.53;;;7.10;;
14121;SDS011;7139;48.114;11.442;2024-01-15T04:08:30;9.77;;;6.00;;
14121;SDS011;7139;48.114;11.442;2024-01-15T04:10:57;8.93;;;6.13;;
14121;SDS011;7139;48.114;11.442;2024-01-15T04:13:25;8.73;;;6.03;;
14121;SDS011;7139;48.114;11.442;2024-01-15T04:15:52;9.13;;;6.43;;
14121;SDS011;7139;48.114;11.442;2024-01-15T04:18:19;7.67;;;5.27;;
14121;SDS011;7139;48.114;11.442;2024-01-15T04:20:46;11.57;;;6.90;;
14121;SDS011;7139;48.114;11.442;2024-01-15T04:23:13;8.47;;;5.87;;
14121;SDS011;7139;48.114;11.442;2024-01-15T04:25:41;9.90;;;5.90;;
14121;SDS011;7139;48.114;11.442;2024-01-15T04:28:09;9.40;;;5.90;;
14121;SDS011;7139;48.114;11.442;2024-01-15T04:30:36;8.67;;;5.67;;
14121;SDS011;7139;48.114;11.442;2024-01-15T04:33:03;9.03;;;6.00;;
14121;SDS011;7139;48.114;11.442;2024-01-15T04:35:30;8.53;;;5.97;;
14121;SDS011;7139;48.114;11.442;2024-01-15T04:37:57;7.90;;;6.40;;
14121;SDS011;7139;48.114;11.442;2024-01-15T04:40:24;9.60;;;6.40;;
14121;SDS011;7139;48.114;11.442;2024-01-15T04:42:54;7.73;;;6.03;;
14121;SDS011;7139;48.114;11.442;2024-01-15T04:45:21;9.07;;;6.80;;
14121;SDS011;7139;48.114;11.442;2024-01-15T04:47:53;9.67;;;6.00;;
14121;SDS011;7139;48.114;11.442;2024-01-15T04:50:21;7.80;;;5.63;;
14121;SDS011;7139;48.114;11.442;2024-01-15T04:52:49;8.00;;;5.73;;
14121;SDS011;7139;48.114;11.442;2024-01-15T04:55:16;7.47;;;4.80;;
14121;SDS011;7139;48.114;11.442;2024-01-15T04:57:43;9.13;;;5.73;;
14121;SDS011;7139;48.114;11.442;2024-01-15T05:00:12;7.57;;;5.20;;
14121;SDS011;7139;48.114;11.442;2024-01-15T05:02:40;7.80;;;5.17;;
14121;SDS011;7139;48.114;11.442;2024-01-15T05:05:07;8.57;;;5.00;;
14121;SDS011;7139;48.114;11.442;2024-01-15T05:07:34;7.40;;;5.73;;
14121;SDS011;7139;48.114;11.442;2024-01-15T05:10:01;9.50;;;5.17;;
14121;SDS011;7139;48.114;11.442;2024-01-15T05:12:29;7.20;;;5.37;;
14121;SDS011;7139;48.114;11.442;2024-01-15T05:14:56;6.67;;;4.83;;
14121;SDS011;7139;48.114;11.442;2024-01-15T05:17:24;7.53;;;5.10;;
14121;SDS011;7139;48.114;11.442;2024-01-15T05:19:51;9.77;;;5.27;;
14121;SDS011;7139;48.114;11.442;2024-01-15T05:22:18;6.37;;;5.03;;
14121;SDS011;7139;48.114;11.442;2024-01-15T05:24:46;7.43;;;5.27;;
14121;SDS011;7139;48.114;11.442;2024-01-15T05:27:13;7.63;;;5.00;;
14121;SDS011;7139;48.114;11.442;2024-01-15T05:29:41;5.27;;;4.67;;
14121;SDS011;7139;48.114;11.442;2024-01-15T05:32:08;6.90;;;4.90;;
14121;SDS011;7139;48.114;11.442;2024-01-15T05:34:36;6.90;;;4.87;;
14121;SDS011;7139;48.114;11.442;2024-01-15T05:37:03;7.40;;;5.40;;
14121;SDS011;7139;48.114;11.442;2024-01-15T05:39:30;7.37;;;5.10;;
14121;SDS011;7139;48.114;11.442;2024-01-15T05:41:58;7.37;;;5.30;;
14121;SDS011;7139;48.114;11.442;2024-01-15T05:44:25;8.03;;;5.37;;
14121;SDS011;7139;48.114;11.442;2024-01-15T05:46:52;7.23;;;4.87;;
14121;SDS011;7139;48.114;11.442;2024-01-15T05:49:20;6.77;;;4.83;;
14121;SDS011;7139;48.114;11.442;2024-01-15T05:51:48;7.77;;;5.60;;
14121;SDS011;7139;48.114;11.442;2024-01-15T05:54:17;7.13;;;5.13;;
14121;SDS011;7139;48.114;11.442;2024-01-15T05:56:44;7.30;;;5.57;;
14121;SDS011;7139;48.114;11.442;2024-01-15T05:59:11;7.83;;;5.63;;
14121;SDS011;7139;48.114;11.442;2024-01-15T06:01:38;7.70;;;5.70;;
14121;SDS011;7139;48.114;11.442;2024-01-15T06:04:05;6.60;;;5.17;;
14121;SDS011;7139;48.114;11.442;2024-01-15T06:06:32;7.30;;;5.47;;
14121;SDS011;7139;48.114;11.442;2024-01-15T06:09:01;10.97;;;5.97;;
14121;SDS011;7139;48.114;11.442;2024-01-15T06:11:30;8.60;;;5.23;;
14121;SDS011;7139;48.114;11.442;2024-01-15T06:13:57;8.40;;;5.33;;
14121;SDS011;7139;48.114;11.442;2024-01-15T06:16:25;6.97;;;5.10;;
14121;SDS011;7139;48.114;11.442;2024-01-15T06:18:52;8.90;;;5.43;;
14121;SDS011;7139;48.114;11.442;2024-01-15T06:21:19;7.63;;;5.20;;
14121;SDS011;7139;48.114;11.442;2024-01-15T06:23:46;7.40;;;5.23;;
14121;SDS011;7139;48.114;11.442;2024-01-15T06:26:15;8.43;;;6.07;;
14121;SDS011;7139;48.114;11.442;2024-01-15T06:28:42;8.03;;;5.43;;
14121;SDS011;7139;48.114;11.442;2024-01-15T06:31:09;7.07;;;4.90;;
14121;SDS011;7139;48.114;11.442;2024-01-15T06:33:36;7.30;;;5.20;;
14121;SDS011;7139;48.114;11.442;2024-01-15T06:36:04;7.90;;;5.70;;
14121;SDS011;7139;48.114;11.442;2024-01-15T06:38:31;8.90;;;5.87;;
14121;SDS011;7139;48.114;11.442;2024-01-15T06:40:59;8.83;;;5.67;;
14121;SDS011;7139;48.114;11.442;2024-01-15T06:43:27;7.37;;;5.40;;
14121;SDS011;7139;48.114;11.442;2024-01-15T06:45:54;8.00;;;5.63;;
14121;SDS011;7139;48.114;11.442;2024-01-15T06:48:21;8.20;;;5.57;;
14121;SDS011;7139;48.114;11.442;2024-01-15T06:50:48;7.53;;;5.60;;
14121;SDS011;7139;48.114;11.442;2024-01-15T06:53:15;7.63;;;5.60;;
14121;SDS011;7139;48.114;11.442;2024-01-15T06:55:42;8.87;;;5.57;;
14121;SDS011;7139;48.114;11.442;2024-01-15T06:58:10;7.83;;;5.70;;
14121;SDS011;7139;48.114;11.442;2024-01-15T07:00:38;9.73;;;6.20;;
14121;SDS011;7139;48.114;11.442;2024-01-15T07:03:05;7.73;;;5.17;;
14121;SDS011;7139;48.114;11.442;2024-01-15T07:05:33;8.07;;;5.43;;
14121;SDS011;7139;48.114;11.442;2024-01-15T07:08:01;7.10;;;5.33;;
14121;SDS011;7139;48.114;11.442;2024-01-15T07:10:28;9.47;;;6.93;;
14121;SDS011;7139;48.114;11.442;2024-01-15T07:12:55;8.70;;;6.13;;
14121;SDS011;7139;48.114;11.442;2024-01-15T07:15:22;8.30;;;5.60;;
14121;SDS011;7139;48.114;11.442;2024-01-15T07:17:51;8.60;;;6.37;;
14121;SDS011;7139;48.114;11.442;2024-01-15T07:20:18;9.07;;;6.23;;
14121;SDS011;7139;48.114;11.442;2024-01-15T07:22:45;10.03;;;6.53;;
14121;SDS011;7139;48.114;11.442;2024-01-15T07:25:12;10.20;;;6.53;;
14121;SDS011;7139;48.114;11.442;2024-01-15T07:27:39;10.80;;;7.33;;
14121;SDS011;7139;48.114;11.442;2024-01-15T07:30:09;7.97;;;6.13;;
14121;SDS011;7139;48.114;11.442;2024-01-15T07:32:37;9.10;;;7.40;;
14121;SDS011;7139;48.114;11.442;2024-01-15T07:35:05;9.37;;;6.40;;
14121;SDS011;7139;48.114;11.442;2024-01-15T07:37:33;8.07;;;6.07;;
14121;SDS011;7139;48.114;11.442;2024-01-15T07:40:00;7.93;;;6.00;;
14121;SDS011;7139;48.114;11.442;2024-01-15T07:42:29;8.53;;;6.40;;
14121;SDS011;7139;48.114;11.442;2024-01-15T07:44:56;8.57;;;6.13;;
14121;SDS011;7139;48.114;11.442;2024-01-15T07:47:23;8.23;;;5.87;;
14121;SDS011;7139;48.114;11.442;2024-01-15T07:49:50;8.10;;;5.80;;
14121;SDS011;7139;48.114;11.442;2024-01-15T07:52:19;9.80;;;5.80;;
14121;SDS011;7139;48.114;11.442;2024-01-15T07:54:46;8.47;;;6.13;;
14121;SDS011;7139;48.114;11.442;2024-01-15T07:57:13;9.50;;;6.20;;
14121;SDS011;7139;48.114;11.442;2024-01-15T07:59:40;8.90;;;6.30;;
14121;SDS011;7139;48.114;11.442;2024-01-15T08:02:07;12.87;;;8.60;;
14121;SDS011;7139;48.114;11.442;2024-01-15T08:04:36;8.70;;;5.77;;
14121;SDS011;7139;48.114;11.442;2024-01-15T08:07:03;7.97;;;5.80;;
14121;SDS011;7139;48.114;11.442;2024-01-15T08:09:32;8.37;;;6.03;;
14121;SDS011;7139;48.114;11.442;2024-01-15T08:11:59;8.37;;;5.80;;
14121;SDS011;7139;48.114;11.442;2024-01-15T08:14:26;7.97;;;5.47;;
14121;SDS011;7139;48.114;11.442;2024-01-15T08:16:53;7.33;;;5.40;;
14121;SDS011;7139;48.114;11.442;2024-01-15T08:19:20;7.60;;;5.63;;
14121;SDS011;7139;48.114;11.442;2024-01-15T08:21:47;8.83;;;5.93;;
14121;SDS011;7139;48.114;11.442;2024-01-15T08:24:14;8.53;;;5.73;;
14121;SDS011;7139;48.114;11.442;2024-01-15T08:26:43;7.73;;;4.63;;
14121;SDS011;7139;48.114;11.442;2024-01-15T08:29:10;7.10;;;5.10;;
14121;SDS011;7139;48.114;11.442;2024-01-15T08:31:37;7.47;;;5.37;;
14121;SDS011;7139;48.114;11.442;2024-01-15T08:34:04;9.13;;;6.10;;
14121;SDS011;7139;48.114;11.442;2024-01-15T08:36:31;8.67;;;5.47;;
14121;SDS011;7139;48.114;11.442;2024-01-15T08:39:00;7.47;;;5.57;;
14121;SDS011;7139;48.114;11.442;2024-01-15T08:41:29;9.33;;;5.87;;
14121;SDS011;7139;48.114;11.442;2024-01-15T08:43:57;8.13;;;5.67;;
14121;SDS011;7139;48.114;11.442;2024-01-15T08:46:24;8.13;;;5.60;;
14121;SDS011;7139;48.114;11.442;2024-01-15T08:48:51;7.93;;;5.83;;
14121;SDS011;7139;48.114;11.442;2024-01-15T08:51:18;8.57;;;5.40;;
14121;SDS011;7139;48.114;11.442;2024-01-15T08:53:45;8.50;;;5.87;;
14121;SDS011;7139;48.114;11.442;2024-01-15T08:56:12;6.43;;;4.67;;
14121;SDS011;7139;48.114;11.442;2024-01-15T08:58:39;9.33;;;5.90;;
14121;SDS011;7139;48.114;11.442;2024-01-15T09:01:08;7.83;;;6.03;;
14121;SDS011;7139;48.114;11.442;2024-01-15T09:03:35;7.60;;;5.40;;
14121;SDS011;7139;48.114;11.442;2024-01-15T09:06:02;8.20;;;5.60;;
14121;SDS011;7139;48.114;11.442;2024-01-15T09:08:29;9.30;;;6.03;;
14121;SDS011;7139;48.114;11.442;2024-01-15T09:10:56;10.07;;;6.57;;
14121;SDS011;7139;48.114;11.442;2024-01-15T09:13:24;9.33;;;6.57;;
14121;SDS011;7139;48.114;11.442;2024-01-15T09:15:51;10.27;;;6.17;;
14121;SDS011;7139;48.114;11.442;2024-01-15T09:18:19;6.80;;;5.50;;
14121;SDS011;7139;48.114;11.442;2024-01-15T09:20:46;8.10;;;5.53;;
14121;SDS011;7139;48.114;11.442;2024-01-15T09:23:13;6.97;;;5.37;;
14121;SDS011;7139;48.114;11.442;2024-01-15T09:25:40;7.20;;;5.43;;
14121;SDS011;7139;48.114;11.442;2024-01-15T09:28:07;6.87;;;4.57;;
14121;SDS011;7139;48.114;11.442;2024-01-15T09:30:35;7.80;;;5.50;;
14121;SDS011;7139;48.114;11.442;2024-01-15T09:33:02;7.73;;;5.30;;
14121;SDS011;7139;48.114;11.442;2024-01-15T09:35:31;7.30;;;5.17;;
14121;SDS011;7139;48.114;11.442;2024-01-15T09:37:59;6.77;;;4.63;;
14121;SDS011;7139;48.114;11.442;2024-01-15T09:40:27;6.63;;;4.43;;
14121;SDS011;7139;48.114;11.442;2024-01-15T09:42:57;5.97;;;4.20;;
14121;SDS011;7139;48.114;11.442;2024-01-15T09:45:24;7.47;;;5.07;;
14121;SDS011;7139;48.114;11.442;2024-01-15T09:47:52;6.77;;;4.60;;
14121;SDS011;7139;48.114;11.442;2024-01-15T09:50:19;6.13;;;4.80;;
14121;SDS011;7139;48.114;11.442;2024-01-15T09:52:48;5.10;;;4.03;;
14121;SDS011;7139;48.114;11.442;2024-01-15T09:55:17;5.87;;;4.57;;
14121;SDS011;7139;48.114;11.442;2024-01-15T09:57:45;5.37;;;4.33;;
14121;SDS011;7139;48.114;11.442;2024-01-15T10:00:12;7.37;;;5.13;;
14121;SDS011;7139;48.114;11.442;2024-01-15T10:02:39;11.07;;;4.57;;
14121;SDS011;7139;48.114;11.442;2024-01-15T10:05:07;5.27;;;3.87;;
14121;SDS011;7139;48.114;11.442;2024-01-15T10:07:34;6.47;;;4.47;;
14121;SDS011;7139;48.114;11.442;2024-01-15T10:10:03;6.83;;;4.57;;
14121;SDS011;7139;48.114;11.442;2024-01-15T10:12:30;5.50;;;4.30;;
14121;SDS011;7139;48.114;11.442;2024-01-15T10:14:57;6.83;;;4.33;;
14121;SDS011;7139;48.114;11.442;2024-01-15T10:17:24;6.37;;;4.53;;
14121;SDS011;7139;48.114;11.442;2024-01-15T10:19:52;6.70;;;4.47;;
14121;SDS011;7139;48.114;11.442;2024-01-15T10:22:19;7.13;;;3.90;;
14121;SDS011;7139;48.114;11.442;2024-01-15T10:24:46;7.03;;;3.83;;
14121;SDS011;7139;48.114;11.442;2024-01-15T10:27:14;5.20;;;4.17;;
14121;SDS011;7139;48.114;11.442;2024-01-15T10:29:41;7.60;;;5.47;;
14121;SDS011;7139;48.114;11.442;2024-01-15T10:32:09;6.33;;;4.10;;
14121;SDS011;7139;48.114;11.442;2024-01-15T10:34:37;6.77;;;4.60;;
14121;SDS011;7139;48.114;11.442;2024-01-15T10:37:06;5.63;;;4.00;;
14121;SDS011;7139;48.114;11.442;2024-01-15T10:39:34;5.53;;;4.63;;
14121;SDS011;7139;48.114;11.442;2024-01-15T10:42:01;5.80;;;4.07;;
14121;SDS011;7139;48.114;11.442;2024-01-15T10:44:30;5.20;;;4.07;;
14121;SDS011;7139;48.114;11.442;2024-01-15T10:46:57;6.17;;;4.20;;
14121;SDS011;7139;48.114;11.442;2024-01-15T10:49:24;4.63;;;3.80;;
14121;SDS011;7139;48.114;11.442;2024-01-15T10:51:53;6.40;;;3.77;;
14121;SDS011;7139;48.114;11.442;2024-01-15T10:54:20;5.37;;;4.13;;
14121;SDS011;7139;48.114;11.442;2024-01-15T10:56:49;6.63;;;4.07;;
14121;SDS011;7139;48.114;11.442;2024-01-15T10:59:16;5.00;;;3.90;;
14121;SDS011;7139;48.114;11.442;2024-01-15T11:01:45;5.77;;;3.90;;
14121;SDS011;7139;48.114;11.442;2024-01-15T11:04:12;5.27;;;3.70;;
14121;SDS011;7139;48.114;11.442;2024-01-15T11:06:41;6.07;;;3.73;;
14121;SDS011;7139;48.114;11.442;2024-01-15T11:09:08;6.03;;;3.70;;
14121;SDS011;7139;48.114;11.442;2024-01-15T11:11:38;4.43;;;3.90;;
14121;SDS011;7139;48.114;11.442;2024-01-15T11:14:06;4.87;;;3.50;;
14121;SDS011;7139;48.114;11.442;2024-01-15T11:19:20;4.20;;;3.40;;
14121;SDS011;7139;48.114;11.442;2024-01-15T11:21:47;6.13;;;3.17;;
14121;SDS011;7139;48.114;11.442;2024-01-15T11:26:57;4.67;;;3.40;;
14121;SDS011;7139;48.114;11.442;2024-01-15T11:29:33;4.83;;;3.43;;
14121;SDS011;7139;48.114;11.442;2024-01-15T11:32:01;4.83;;;3.67;;
14121;SDS011;7139;48.114;11.442;2024-01-15T11:37:16;3.97;;;3.23;;
14121;SDS011;7139;48.114;11.442;2024-01-15T11:39:43;4.50;;;3.20;;
14121;SDS011;7139;48.114;11.442;2024-01-15T11:42:11;4.60;;;3.30;;
14121;SDS011;7139;48.114;11.442;2024-01-15T11:44:39;4.07;;;3.20;;
14121;SDS011;7139;48.114;11.442;2024-01-15T11:47:06;3.80;;;3.23;;
14121;SDS011;7139;48.114;11.442;2024-01-15T11:49:43;4.33;;;3.47;;
14121;SDS011;7139;48.114;11.442;2024-01-15T11:52:18;4.03;;;3.07;;
14121;SDS011;7139;48.114;11.442;2024-01-15T11:54:48;4.60;;;3.27;;
14121;SDS011;7139;48.114;11.442;2024-01-15T11:57:18;3.60;;;3.07;;
14121;SDS011;7139;48.114;11.442;2024-01-15T11:59:48;3.93;;;3.00;;
14121;SDS011;7139;48.114;11.442;2024-01-15T12:02:15;3.37;;;2.70;;
14121;SDS011;7139;48.114;11.442;2024-01-15T12:04:42;3.90;;;3.30;;
14121;SDS011;7139;48.114;11.442;2024-01-15T12:07:09;4.13;;;3.30;;
14121;SDS011;7139;48.114;11.442;2024-01-15T12:09:43;4.27;;;3.17;;
14121;SDS011;7139;48.114;11.442;2024-01-15T12:12:11;5.17;;;3.47;;
14121;SDS011;7139;48.114;11.442;2024-01-15T12:14:40;6.03;;;3.20;;
14121;SDS011;7139;48.114;11.442;2024-01-15T12:17:08;4.33;;;3.30;;
14121;SDS011;7139;48.114;11.442;2024-01-15T12:19:36;3.27;;;2.77;;
14121;SDS011;7139;48.114;11.442;2024-01-15T12:22:03;4.37;;;2.70;;
14121;SDS011;7139;48.114;11.442;2024-01-15T12:24:30;2.53;;;2.33;;
14121;SDS011;7139;48.114;11.442;2024-01-15T12:26:58;5.27;;;2.97;;
14121;SDS011;7139;48.114;11.442;2024-01-15T12:29:26;3.97;;;3.10;;
14121;SDS011;7139;48.114;11.442;2024-01-15T12:31:53;6.07;;;4.47;;
14121;SDS011;7139;48.114;11.442;2024-01-15T12:34:20;5.43;;;3.60;;
14121;SDS011;7139;48.114;11.442;2024-01-15T12:36:47;4.20;;;3.17;;
14121;SDS011;7139;48.114;11.442;2024-01-15T12:39:14;5.30;;;3.30;;
14121;SDS011;7139;48.114;11.442;2024-01-15T12:41:41;6.43;;;3.17;;
14121;SDS011;7139;48.114;11.442;2024-01-15T12:44:10;4.20;;;3.00;;
14121;SDS011;7139;48.114;11.442;2024-01-15T12:46:37;3.57;;;2.80;;
14121;SDS011;7139;48.114;11.442;2024-01-15T12:49:04;4.50;;;3.17;;
14121;SDS011;7139;48.114;11.442;2024-01-15T12:51:32;4.57;;;3.47;;
14121;SDS011;7139;48.114;11.442;2024-01-15T12:54:01;3.50;;;3.10;;
14121;SDS011;7139;48.114;11.442;2024-01-15T12:56:28;4.03;;;3.17;;
14121;SDS011;7139;48.114;11.442;2024-01-15T12:58:55;4.17;;;3.47;;
14121;SDS011;7139;48.114;11.442;2024-01-15T13:01:23;5.00;;;3.70;;
14121;SDS011;7139;48.114;11.442;2024-01-15T13:03:50;4.73;;;3.33;;
14121;SDS011;7139;48.114;11.442;2024-01-15T13:06:17;3.83;;;3.10;;
14121;SDS011;7139;48.114;11.442;2024-01-15T13:08:44;3.90;;;2.97;;
14121;SDS011;7139;48.114;11.442;2024-01-15T13:11:12;4.30;;;2.97;;
14121;SDS011;7139;48.114;11.442;2024-01-15T13:13:39;3.90;;;3.40;;
14121;SDS011;7139;48.114;11.442;2024-01-15T13:16:06;3.90;;;3.10;;
14121;SDS011;7139;48.114;11.442;2024-01-15T13:18:35;4.77;;;3.23;;
14121;SDS011;7139;48.114;11.442;2024-01-15T13:21:02;4.43;;;3.07;;
14121;SDS011;7139;48.114;11.442;2024-01-15T13:23:29;3.73;;;3.10;;
14121;SDS011;7139;48.114;11.442;2024-01-15T13:25:56;3.50;;;3.20;;
14121;SDS011;7139;48.114;11.442;2024-01-15T13:28:24;4.23;;;3.40;;
14121;SDS011;7139;48.114;11.442;2024-01-15T13:30:51;3.90;;;3.20;;
14121;SDS011;7139;48.114;11.442;2024-01-15T13:33:18;4.23;;;3.47;;
14121;SDS011;7139;48.114;11.442;2024-01-15T13:35:47;6.10;;;4.20;;
14121;SDS011;7139;48.114;11.442;2024-01-15T13:38:15;4.47;;;3.20;;
14121;SDS011;7139;48.114;11.442;2024-01-15T13:40:42;4.23;;;3.23;;
14121;SDS011;7139;48.114;11.442;2024-01-15T13:43:10;4.73;;;3.83;;
14121;SDS011;7139;48.114;11.442;2024-01-15T13:45:39;4.17;;;3.30;;
14121;SDS011;7139;48.114;11.442;2024-01-15T13:48:06;4.30;;;3.30;;
14121;SDS011;7139;48.114;11.442;2024-01-15T13:50:33;4.73;;;3.50;;
14121;SDS011;7139;48.114;11.442;2024-01-15T13:53:02;4.43;;;3.23;;
14121;SDS011;7139;48.114;11.442;2024-01-15T13:55:29;5.83;;;3.70;;
14121;SDS011;7139;48.114;11.442;2024-01-15T13:57:56;4.00;;;3.20;;
14121;SDS011;7139;48.114;11.442;2024-01-15T14:00:23;4.27;;;3.73;;
14121;SDS011;7139;48.114;11.442;2024-01-15T14:02:50;4.90;;;4.00;;
14121;SDS011;7139;48.114;11.442;2024-01-15T14:05:18;4.20;;;3.40;;
14121;SDS011;7139;48.114;11.442;2024-01-15T14:07:45;4.73;;;3.57;;
14121;SDS011;7139;48.114;11.442;2024-01-15T14:10:13;5.13;;;3.40;;
14121;SDS011;7139;48.114;11.442;2024-01-15T14:12:40;4.70;;;3.43;;
14121;SDS011;7139;48.114;11.442;2024-01-15T14:15:08;3.90;;;3.03;;
14121;SDS011;7139;48.114;11.442;2024-01-15T14:17:35;3.80;;;3.33;;
14121;SDS011;7139;48.114;11.442;2024-01-15T14:20:02;4.87;;;3.53;;
14121;SDS011;7139;48.114;11.442;2024-01-15T14:22:30;3.93;;;3.27;;
14121;SDS011;7139;48.114;11.442;2024-01-15T14:24:57;3.63;;;3.17;;
14121;SDS011;7139;48.114;11.442;2024-01-15T14:27:25;3.60;;;3.00;;
14121;SDS011;7139;48.114;11.442;2024-01-15T14:29:52;8.80;;;5.40;;
14121;SDS011;7139;48.114;11.442;2024-01-15T14:32:19;3.73;;;3.27;;
14121;SDS011;7139;48.114;11.442;2024-01-15T14:34:47;3.63;;;3.10;;
14121;SDS011;7139;48.114;11.442;2024-01-15T14:37:14;4.70;;;3.17;;
14121;SDS011;7139;48.114;11.442;2024-01-15T14:39:41;4.67;;;3.23;;
14121;SDS011;7139;48.114;11.442;2024-01-15T14:42:08;5.00;;;3.50;;
14121;SDS011;7139;48.114;11.442;2024-01-15T14:44:37;3.67;;;3.10;;
14121;SDS011;7139;48.114;11.442;2024-01-15T14:47:05;4.00;;;3.30;;
14121;SDS011;7139;48.114;11.442;2024-01-15T14:49:33;4.83;;;3.47;;
14121;SDS011;7139;48.114;11.442;2024-01-15T14:52:00;4.97;;;3.80;;
14121;SDS011;7139;48.114;11.442;2024-01-15T14:54:27;4.10;;;3.30;;